createdAt,value
2023-04-01T00:01:08.994Z,3.17
2023-04-01T00:03:38.714Z,2.88
2023-04-01T00:06:07.285Z,3.30
2023-04-01T00:08:35.578Z,2.67
2023-04-01T00:11:03.706Z,6.45
2023-04-01T00:13:31.961Z,3.53
2023-04-01T00:16:00.524Z,3.47
2023-04-01T00:18:28.796Z,2.40
2023-04-01T00:20:58.270Z,4.32
2023-04-01T00:23:26.580Z,3.38
2023-04-01T00:25:54.861Z,8.02
2023-04-01T00:28:23.215Z,2.30
2023-04-01T00:30:51.498Z,2.10
2023-04-01T00:33:19.686Z,2.67
2023-04-01T00:35:48.605Z,2.17
2023-04-01T00:38:19.913Z,2.83
2023-04-01T00:40:48.559Z,2.40
2023-04-01T00:43:20.680Z,3.42
2023-04-01T00:45:50.422Z,2.63
2023-04-01T00:48:21.628Z,2.47
2023-04-01T00:50:54.224Z,2.13
2023-04-01T00:53:25.582Z,2.78
2023-04-01T00:55:59.214Z,7.35
2023-04-01T00:58:29.606Z,2.58
2023-04-01T01:00:58.916Z,3.50
2023-04-01T01:03:27.351Z,2.17
2023-04-01T01:06:12.505Z,2.25
2023-04-01T01:08:55.105Z,2.22
2023-04-01T01:11:37.006Z,3.28
2023-04-01T01:14:22.859Z,3.40
2023-04-01T01:16:57.673Z,2.40
2023-04-01T01:19:45.135Z,2.17
2023-04-01T01:22:41.634Z,3.90
2023-04-01T01:25:28.758Z,2.70
2023-04-01T01:28:04.952Z,2.15
2023-04-01T01:30:49.553Z,3.13
2023-04-01T01:33:37.353Z,3.47
2023-04-01T01:36:11.639Z,4.65
2023-04-01T01:38:40.856Z,2.25
2023-04-01T01:41:11.063Z,2.20
2023-04-01T01:43:43.839Z,2.10
2023-04-01T01:46:14.639Z,1.67
2023-04-01T01:48:45.795Z,1.85
2023-04-01T01:51:15.837Z,1.63
2023-04-01T01:53:46.517Z,2.22
2023-04-01T01:56:15.123Z,2.60
2023-04-01T01:58:46.977Z,1.70
2023-04-01T02:01:19.117Z,1.80
2023-04-01T02:03:47.898Z,2.50
2023-04-01T02:06:21.103Z,2.13
2023-04-01T02:08:54.455Z,3.92
2023-04-01T02:11:28.802Z,2.30
2023-04-01T02:14:04.567Z,2.13
2023-04-01T02:16:37.567Z,1.98
2023-04-01T02:19:08.465Z,4.93
2023-04-01T02:21:39.650Z,2.78
2023-04-01T02:24:12.613Z,3.45
2023-04-01T02:26:42.106Z,2.42
2023-04-01T02:29:13.894Z,3.97
2023-04-01T02:31:43.900Z,1.88
2023-04-01T02:34:12.132Z,1.90
2023-04-01T02:36:41.739Z,3.45
2023-04-01T02:39:10.358Z,2.58
2023-04-01T02:41:41.910Z,1.23
2023-04-01T02:46:38.970Z,2.65
2023-04-01T02:49:07.636Z,1.90
2023-04-01T02:51:36.621Z,2.47
2023-04-01T02:54:06.557Z,2.08
2023-04-01T02:56:35.110Z,1.90
2023-04-01T02:59:03.692Z,1.92
2023-04-01T03:01:31.755Z,2.67
2023-04-01T03:03:59.996Z,1.70
2023-04-01T03:06:28.154Z,1.77
2023-04-01T03:08:56.384Z,1.70
2023-04-01T03:11:27.283Z,2.28
2023-04-01T03:13:55.426Z,3.10
2023-04-01T03:16:23.567Z,2.15
2023-04-01T03:18:53.648Z,2.00
2023-04-01T03:21:23.969Z,2.83
2023-04-01T03:23:52.519Z,2.10
2023-04-01T03:26:22.611Z,1.73
2023-04-01T03:28:52.368Z,1.70
2023-04-01T03:31:22.502Z,1.80
2023-04-01T03:33:51.994Z,2.92
2023-04-01T03:36:20.358Z,8.50
2023-04-01T03:38:48.825Z,2.38
2023-04-01T03:41:19.100Z,1.90
2023-04-01T03:43:47.362Z,1.77
2023-04-01T03:46:21.489Z,2.33
2023-04-01T03:48:50.121Z,2.42
2023-04-01T03:51:18.304Z,2.63
2023-04-01T03:53:46.554Z,1.80
2023-04-01T03:56:14.749Z,2.22
2023-04-01T03:58:42.956Z,2.17
2023-04-01T04:01:18.994Z,2.63
2023-04-01T04:03:50.560Z,3.30
2023-04-01T04:08:48.294Z,1.67
2023-04-01T04:11:16.621Z,2.08
2023-04-01T04:13:45.406Z,2.05
2023-04-01T04:16:13.742Z,1.20
2023-04-01T04:18:44.942Z,1.67
2023-04-01T04:21:16.938Z,1.98
2023-04-01T04:23:45.666Z,2.88
2023-04-01T04:26:15.218Z,2.15
2023-04-01T04:28:43.469Z,2.67
2023-04-01T04:31:11.732Z,2.70
2023-04-01T04:33:39.875Z,2.83
2023-04-01T04:36:08.796Z,1.38
2023-04-01T04:38:38.517Z,1.70
2023-04-01T04:41:11.404Z,1.52
2023-04-01T04:43:39.907Z,4.80
2023-04-01T04:46:08.830Z,1.90
2023-04-01T04:48:37.575Z,2.70
2023-04-01T04:51:06.094Z,1.75
2023-04-01T04:53:34.320Z,5.47
2023-04-01T04:56:03.842Z,3.15
2023-04-01T04:58:32.293Z,3.67
2023-04-01T05:01:00.499Z,2.10
2023-04-01T05:03:28.794Z,2.10
2023-04-01T05:05:57.163Z,4.40
2023-04-01T05:08:25.320Z,2.90
2023-04-01T05:10:53.733Z,2.10
2023-04-01T05:13:23.333Z,2.65
2023-04-01T05:15:51.531Z,1.60
2023-04-01T05:18:19.700Z,2.05
2023-04-01T05:20:51.805Z,3.30
2023-04-01T05:23:22.106Z,2.03
2023-04-01T05:25:50.934Z,2.33
2023-04-01T05:28:19.394Z,2.40
2023-04-01T05:30:49.134Z,1.55
2023-04-01T05:33:17.282Z,4.05
2023-04-01T05:35:45.551Z,2.03
2023-04-01T05:38:13.759Z,2.22
2023-04-01T05:40:42.692Z,3.70
2023-04-01T05:43:10.908Z,2.47
2023-04-01T05:45:39.143Z,2.30
2023-04-01T05:48:08.630Z,1.73
2023-04-01T05:50:36.879Z,5.57
2023-04-01T05:53:04.998Z,2.45
2023-04-01T05:55:33.367Z,1.73
2023-04-01T05:58:01.905Z,1.70
2023-04-01T06:00:32.326Z,2.10
2023-04-01T06:03:01.389Z,6.20
2023-04-01T06:05:33.648Z,2.28
2023-04-01T06:08:07.436Z,2.63
2023-04-01T06:10:46.630Z,3.28
2023-04-01T06:13:23.572Z,3.30
2023-04-01T06:15:59.807Z,2.40
2023-04-01T06:18:57.794Z,2.83
2023-04-01T06:22:05.935Z,3.42
2023-04-01T06:25:01.725Z,2.40
2023-04-01T06:27:45.630Z,1.60
2023-04-01T06:30:33.132Z,7.53
2023-04-01T06:33:22.352Z,4.35
2023-04-01T06:36:11.392Z,3.63
2023-04-01T06:39:09.713Z,5.60
2023-04-01T06:42:20.716Z,4.22
2023-04-01T06:45:03.956Z,3.75
2023-04-01T06:47:48.595Z,9.68
2023-04-01T06:50:27.184Z,7.38
2023-04-01T06:53:03.893Z,7.38
2023-04-01T06:55:43.657Z,8.27
2023-04-01T06:58:19.068Z,6.45
2023-04-01T07:00:52.916Z,6.38
2023-04-01T07:03:26.438Z,9.77
2023-04-01T07:05:56.279Z,10.48
2023-04-01T07:08:30.367Z,10.68
2023-04-01T07:11:05.705Z,7.03
2023-04-01T07:13:38.466Z,11.45
2023-04-01T07:16:15.121Z,7.47
2023-04-01T07:18:48.251Z,9.40
2023-04-01T07:21:26.027Z,6.85
2023-04-01T07:23:57.490Z,11.05
2023-04-01T07:26:27.923Z,6.40
2023-04-01T07:28:56.919Z,10.63
2023-04-01T07:31:42.003Z,9.25
2023-04-01T07:34:15.235Z,7.32
2023-04-01T07:36:47.858Z,8.80
2023-04-01T07:39:29.824Z,2.92
2023-04-01T07:42:08.132Z,10.63
2023-04-01T07:44:44.569Z,9.18
2023-04-01T07:47:28.448Z,4.68
2023-04-01T07:50:11.509Z,7.38
2023-04-01T07:52:52.788Z,6.55
2023-04-01T07:55:28.946Z,8.30
2023-04-01T07:58:09.922Z,14.90
2023-04-01T08:00:48.066Z,10.40
2023-04-01T08:03:45.307Z,9.90
2023-04-01T08:06:21.274Z,7.70
2023-04-01T08:09:03.176Z,7.80
2023-04-01T08:11:43.858Z,5.60
2023-04-01T08:14:22.870Z,7.27
2023-04-01T08:17:01.824Z,7.35
2023-04-01T08:19:38.337Z,9.52
2023-04-01T08:22:13.510Z,4.25
2023-04-01T08:24:48.164Z,6.03
2023-04-01T08:27:23.945Z,5.82
2023-04-01T08:29:59.708Z,4.07
2023-04-01T08:32:33.571Z,4.43
2023-04-01T08:35:12.197Z,5.13
2023-04-01T08:37:44.682Z,4.82
2023-04-01T08:40:40.127Z,3.88
2023-04-01T08:43:14.480Z,3.88
2023-04-01T08:46:09.577Z,3.90
2023-04-01T08:49:06.824Z,2.25
2023-04-01T08:52:20.841Z,3.45
2023-04-01T08:55:21.889Z,9.10
2023-04-01T08:58:02.532Z,2.40
2023-04-01T09:00:34.656Z,4.37
2023-04-01T09:03:38.181Z,2.65
2023-04-01T09:06:35.522Z,6.47
2023-04-01T09:09:27.279Z,2.60
2023-04-01T09:14:57.954Z,1.48
2023-04-01T09:17:56.055Z,1.90
2023-04-01T09:20:41.796Z,1.20
2023-04-01T09:23:31.212Z,4.85
2023-04-01T09:26:22.034Z,5.68
2023-04-01T09:29:02.079Z,3.60
2023-04-01T09:31:57.001Z,7.28
2023-04-01T09:34:33.606Z,7.45
2023-04-01T09:37:19.349Z,6.88
2023-04-01T09:40:04.329Z,6.10
2023-04-01T09:42:45.551Z,5.18
2023-04-01T09:45:31.724Z,4.55
2023-04-01T09:48:13.424Z,6.10
2023-04-01T09:50:52.036Z,4.28
2023-04-01T09:53:45.351Z,7.15
2023-04-01T09:57:08.399Z,4.93
2023-04-01T10:00:13.396Z,3.58
2023-04-01T10:03:28.475Z,4.57
2023-04-01T10:06:28.039Z,7.53
2023-04-01T10:09:41.350Z,7.82
2023-04-01T10:12:48.895Z,9.80
2023-04-01T10:15:52.034Z,9.75
2023-04-01T10:18:58.205Z,5.78
2023-04-01T10:21:59.566Z,13.55
2023-04-01T10:24:58.262Z,6.40
2023-04-01T10:27:58.880Z,7.85
2023-04-01T10:30:56.551Z,9.15
2023-04-01T10:34:00.307Z,5.53
2023-04-01T10:36:54.693Z,13.10
2023-04-01T10:39:57.021Z,9.85
2023-04-01T10:43:04.983Z,6.38
2023-04-01T10:46:03.276Z,9.38
2023-04-01T10:49:07.094Z,7.13
2023-04-01T10:52:13.156Z,6.72
2023-04-01T10:55:02.253Z,6.85
2023-04-01T10:58:11.615Z,12.18
2023-04-01T11:01:08.124Z,7.13
2023-04-01T11:04:03.431Z,5.00
2023-04-01T11:06:59.874Z,7.15
2023-04-01T11:10:28.208Z,9.73
2023-04-01T11:13:37.743Z,5.15
2023-04-01T11:16:52.938Z,7.32
2023-04-01T11:19:50.965Z,2.45
2023-04-01T11:22:46.835Z,3.10
2023-04-01T11:25:32.047Z,2.85
2023-04-01T11:28:23.433Z,1.92
2023-04-01T11:31:12.274Z,3.25
2023-04-01T11:33:52.154Z,2.65
2023-04-01T11:36:35.037Z,3.75
2023-04-01T11:39:21.847Z,2.83
2023-04-01T11:42:00.473Z,10.98
2023-04-01T11:44:31.015Z,6.57
2023-04-01T11:47:21.539Z,3.03
2023-04-01T11:50:02.290Z,11.30
2023-04-01T11:52:49.632Z,4.07
2023-04-01T11:55:27.600Z,6.05
2023-04-01T11:58:18.714Z,8.52
2023-04-01T12:01:11.075Z,3.85
2023-04-01T12:04:03.610Z,4.00
2023-04-01T12:06:41.352Z,3.90
2023-04-01T12:09:16.150Z,4.20
2023-04-01T12:11:53.145Z,10.55
2023-04-01T12:14:33.167Z,5.57
2023-04-01T12:17:09.666Z,7.32
2023-04-01T12:19:44.561Z,3.92
2023-04-01T12:22:27.420Z,6.80
2023-04-01T12:25:07.595Z,3.72
2023-04-01T12:27:44.245Z,4.15
2023-04-01T12:30:45.048Z,4.68
2023-04-01T12:33:36.584Z,3.55
2023-04-01T12:36:18.183Z,2.50
2023-04-01T12:39:02.809Z,4.60
2023-04-01T12:41:41.676Z,3.42
2023-04-01T12:44:35.177Z,2.20
2023-04-01T12:47:16.678Z,5.18
2023-04-01T12:50:22.346Z,6.20
2023-04-01T12:53:08.027Z,5.03
2023-04-01T12:55:42.708Z,3.45
2023-04-01T12:58:41.248Z,2.92
2023-04-01T13:01:30.032Z,2.35
2023-04-01T13:04:28.175Z,4.50
2023-04-01T13:07:22.350Z,4.28
2023-04-01T13:10:00.988Z,5.43
2023-04-01T13:12:42.865Z,4.40
2023-04-01T13:15:28.875Z,3.58
2023-04-01T13:18:05.924Z,3.80
2023-04-01T13:20:45.809Z,3.70
2023-04-01T13:23:27.633Z,10.50
2023-04-01T13:26:14.388Z,6.93
2023-04-01T13:28:52.627Z,2.80
2023-04-01T13:31:37.465Z,8.10
2023-04-01T13:34:18.389Z,5.22
2023-04-01T13:36:57.904Z,6.43
2023-04-01T13:39:44.071Z,2.53
2023-04-01T13:42:21.599Z,3.78
2023-04-01T13:44:57.865Z,4.40
2023-04-01T13:47:57.361Z,4.15
2023-04-01T13:50:41.528Z,5.68
2023-04-01T13:53:54.177Z,9.40
2023-04-01T13:56:36.065Z,3.22
2023-04-01T13:59:33.237Z,5.72
2023-04-01T14:02:16.750Z,6.97
2023-04-01T14:04:58.757Z,5.88
2023-04-01T14:07:49.519Z,4.25
2023-04-01T14:10:27.737Z,10.30
2023-04-01T14:13:02.767Z,8.27
2023-04-01T14:16:04.304Z,5.90
2023-04-01T14:19:03.550Z,3.15
2023-04-01T14:21:38.058Z,4.28
2023-04-01T14:24:22.752Z,2.17
2023-04-01T14:27:29.268Z,4.72
2023-04-01T14:30:14.423Z,5.15
2023-04-01T14:32:50.854Z,8.32
2023-04-01T14:35:32.670Z,6.55
2023-04-01T14:38:10.806Z,8.40
2023-04-01T14:40:56.411Z,6.40
2023-04-01T14:43:50.569Z,5.95
2023-04-01T14:47:06.445Z,5.90
2023-04-01T14:49:37.644Z,3.58
2023-04-01T14:52:14.027Z,5.75
2023-04-01T14:54:46.167Z,1.20
2023-04-01T14:57:17.643Z,3.38
2023-04-01T15:02:44.776Z,4.10
2023-04-01T15:05:22.515Z,5.35
2023-04-01T15:08:03.084Z,2.65
2023-04-01T15:11:06.600Z,11.02
2023-04-01T15:13:53.604Z,4.68
2023-04-01T15:16:28.280Z,16.27
2023-04-01T15:19:07.768Z,4.97
2023-04-01T15:21:56.063Z,4.32
2023-04-01T15:24:28.031Z,5.68
2023-04-01T15:27:19.070Z,3.53
2023-04-01T15:32:43.147Z,8.68
2023-04-01T15:35:23.591Z,11.63
2023-04-01T15:37:58.641Z,10.00
2023-04-01T15:40:33.458Z,4.65
2023-04-01T15:43:13.477Z,3.08
2023-04-01T15:45:51.709Z,3.97
2023-04-01T15:48:34.187Z,5.15
2023-04-01T15:51:13.265Z,4.38
2023-04-01T15:54:07.438Z,2.13
2023-04-01T15:57:03.268Z,4.22
2023-04-01T15:59:54.148Z,5.50
2023-04-01T16:02:27.369Z,4.68
2023-04-01T16:05:00.934Z,3.55
2023-04-01T16:07:45.807Z,5.32
2023-04-01T16:10:47.155Z,2.38
2023-04-01T16:13:30.584Z,3.30
2023-04-01T16:16:08.537Z,2.03
2023-04-01T16:19:07.615Z,7.97
2023-04-01T16:21:44.128Z,3.22
2023-04-01T16:24:22.493Z,8.38
2023-04-01T16:26:57.141Z,4.68
2023-04-01T16:29:35.145Z,7.80
2023-04-01T16:32:20.227Z,3.70
2023-04-01T16:35:00.523Z,3.67
2023-04-01T16:37:38.599Z,6.22
2023-04-01T16:40:18.827Z,6.75
2023-04-01T16:42:53.641Z,5.35
2023-04-01T16:45:32.840Z,5.60
2023-04-01T16:48:09.466Z,3.40
2023-04-01T16:50:50.970Z,4.43
2023-04-01T16:53:21.936Z,5.80
2023-04-01T16:55:54.501Z,13.98
2023-04-01T16:58:29.645Z,3.22
2023-04-01T17:01:05.113Z,8.68
2023-04-01T17:03:38.946Z,3.53
2023-04-01T17:06:21.800Z,8.30
2023-04-01T17:09:08.219Z,4.70
2023-04-01T17:11:42.855Z,8.57
2023-04-01T17:14:21.066Z,6.78
2023-04-01T17:17:03.839Z,6.97
2023-04-01T17:19:51.402Z,4.03
2023-04-01T17:22:33.666Z,5.47
2023-04-01T17:25:15.594Z,6.30
2023-04-01T17:27:53.047Z,5.53
2023-04-01T17:30:28.616Z,6.00
2023-04-01T17:33:13.004Z,5.35
2023-04-01T17:35:47.076Z,3.13
2023-04-01T17:38:25.852Z,5.25
2023-04-01T17:41:04.530Z,2.63
2023-04-01T17:43:41.604Z,3.67
2023-04-01T17:46:24.867Z,3.85
2023-04-01T17:49:03.597Z,7.15
2023-04-01T17:51:39.025Z,5.03
2023-04-01T17:54:21.222Z,9.90
2023-04-01T17:57:06.368Z,4.68
2023-04-01T17:59:40.411Z,5.22
2023-04-01T18:02:25.528Z,6.28
2023-04-01T18:05:23.908Z,6.45
2023-04-01T18:08:18.336Z,5.05
2023-04-01T18:11:06.061Z,3.13
2023-04-01T18:14:15.869Z,4.50
2023-04-01T18:17:01.792Z,4.55
2023-04-01T18:19:39.649Z,3.65
2023-04-01T18:22:21.074Z,3.70
2023-04-01T18:25:00.896Z,5.32
2023-04-01T18:27:34.099Z,5.75
2023-04-01T18:30:09.619Z,7.85
2023-04-01T18:32:46.073Z,7.47
2023-04-01T18:35:26.897Z,5.82
2023-04-01T18:38:02.824Z,5.17
2023-04-01T18:40:37.260Z,14.32
2023-04-01T18:43:15.038Z,4.63
2023-04-01T18:45:49.004Z,6.53
2023-04-01T18:48:36.054Z,8.00
2023-04-01T18:51:12.790Z,8.75
2023-04-01T18:53:47.880Z,7.95
2023-04-01T18:56:26.422Z,8.85
2023-04-01T18:59:01.598Z,8.50
2023-04-01T19:01:39.066Z,13.25
2023-04-01T19:04:18.831Z,25.55
2023-04-01T19:06:50.733Z,16.17
2023-04-01T19:09:23.738Z,23.27
2023-04-01T19:12:05.114Z,17.02
2023-04-01T19:14:55.295Z,13.82
2023-04-01T19:17:35.401Z,12.43
2023-04-01T19:20:17.062Z,9.30
2023-04-01T19:25:40.293Z,16.50
2023-04-01T19:28:25.056Z,12.48
2023-04-01T19:30:58.619Z,9.10
2023-04-01T19:33:43.097Z,7.35
2023-04-01T19:36:17.551Z,5.65
2023-04-01T19:38:55.618Z,12.93
2023-04-01T19:41:38.543Z,10.70
2023-04-01T19:44:24.393Z,12.70
2023-04-01T19:46:57.836Z,11.38
2023-04-01T19:49:48.503Z,17.65
2023-04-01T19:52:23.977Z,5.70
2023-04-01T19:55:00.044Z,6.20
2023-04-01T19:57:41.494Z,10.98
2023-04-01T20:00:23.726Z,11.10
2023-04-01T20:03:01.279Z,14.10
2023-04-01T20:05:43.850Z,8.93
2023-04-01T20:08:19.183Z,10.85
2023-04-01T20:10:58.582Z,11.40
2023-04-01T20:13:37.233Z,11.65
2023-04-01T20:16:08.354Z,8.60
2023-04-01T20:18:43.790Z,8.77
2023-04-01T20:21:26.848Z,10.77
2023-04-01T20:23:59.076Z,7.95
2023-04-01T20:26:32.649Z,7.32
2023-04-01T20:29:17.548Z,11.40
2023-04-01T20:31:50.863Z,9.30
2023-04-01T20:34:34.739Z,8.05
2023-04-01T20:37:15.529Z,6.65
2023-04-01T20:40:21.197Z,11.98
2023-04-01T20:43:10.386Z,17.05
2023-04-01T20:45:48.426Z,8.68
2023-04-01T20:48:43.812Z,5.10
2023-04-01T20:51:17.447Z,13.65
2023-04-01T20:53:52.406Z,6.55
2023-04-01T20:56:33.051Z,7.47
2023-04-01T20:59:13.832Z,7.68
2023-04-01T21:01:53.640Z,11.13
2023-04-01T21:04:32.901Z,14.50
2023-04-01T21:07:22.545Z,11.15
2023-04-01T21:10:14.586Z,16.38
2023-04-01T21:12:53.254Z,15.43
2023-04-01T21:15:42.193Z,10.30
2023-04-01T21:18:37.573Z,10.77
2023-04-01T21:21:22.990Z,11.60
2023-04-01T21:24:06.841Z,14.18
2023-04-01T21:26:49.722Z,9.45
2023-04-01T21:29:35.717Z,13.15
2023-04-01T21:32:26.698Z,8.02
2023-04-01T21:35:02.605Z,10.25
2023-04-01T21:37:52.253Z,9.98
2023-04-01T21:40:43.372Z,10.52
2023-04-01T21:43:29.287Z,7.53
2023-04-01T21:46:20.753Z,8.90
2023-04-01T21:49:22.095Z,7.93
2023-04-01T21:52:32.530Z,8.05
2023-04-01T21:55:45.100Z,11.32
2023-04-01T21:58:49.725Z,6.85
2023-04-01T22:01:43.550Z,6.55
2023-04-01T22:04:34.419Z,5.95
2023-04-01T22:07:10.264Z,9.27
2023-04-01T22:09:44.048Z,11.95
2023-04-01T22:12:19.510Z,9.02
2023-04-01T22:14:57.763Z,13.30
2023-04-01T22:17:33.703Z,7.72
2023-04-01T22:20:13.753Z,9.63
2023-04-01T22:22:57.453Z,9.13
2023-04-01T22:25:32.177Z,9.18
2023-04-01T22:28:06.042Z,8.13
2023-04-01T22:30:37.038Z,9.55
2023-04-01T22:33:13.402Z,12.32
2023-04-01T22:35:50.111Z,14.73
2023-04-01T22:38:33.050Z,11.40
2023-04-01T22:41:07.534Z,10.13
2023-04-01T22:43:40.354Z,7.05
2023-04-01T22:46:31.453Z,10.60
2023-04-01T22:49:10.711Z,6.53
2023-04-01T22:51:48.337Z,8.30
2023-04-01T22:54:26.644Z,5.38
2023-04-01T22:56:59.854Z,8.60
2023-04-01T22:59:37.258Z,9.73
2023-04-01T23:02:10.957Z,8.93
2023-04-01T23:04:44.627Z,10.48
2023-04-01T23:07:32.885Z,6.05
2023-04-01T23:10:04.755Z,11.80
2023-04-01T23:12:35.733Z,12.07
2023-04-01T23:15:04.745Z,8.27
2023-04-01T23:17:48.517Z,11.15
2023-04-01T23:20:29.764Z,6.18
2023-04-01T23:23:09.570Z,11.77
2023-04-01T23:25:50.636Z,14.52
2023-04-01T23:28:34.630Z,8.32
2023-04-01T23:31:02.880Z,7.63
2023-04-01T23:33:32.327Z,9.93
2023-04-01T23:36:07.047Z,10.20
2023-04-01T23:38:38.042Z,10.48
2023-04-01T23:41:08.803Z,10.50
2023-04-01T23:43:43.591Z,8.35
2023-04-01T23:46:11.827Z,13.95
2023-04-01T23:48:42.567Z,7.78
2023-04-01T23:51:20.107Z,12.13
2023-04-01T23:53:50.129Z,8.45
2023-04-01T23:56:22.080Z,14.82
2023-04-01T23:58:56.484Z,9.98
